sensor_id;sensor_type;location;lat;lon;timestamp;P1;durP1;ratioP1;P2;durP2;ratioP2
10659;SDS011;5378;53.206;13.316;2023-04-15T00:01:18;68.90;;;25.57;;
10659;SDS011;5378;53.206;13.316;2023-04-15T00:04:05;62.83;;;24.87;;
10659;SDS011;5378;53.206;13.316;2023-04-15T00:06:52;63.40;;;25.60;;
10659;SDS011;5378;53.206;13.316;2023-04-15T00:09:40;64.93;;;25.47;;
10659;SDS011;5378;53.206;13.316;2023-04-15T00:12:27;66.37;;;24.83;;
10659;SDS011;5378;53.206;13.316;2023-04-15T00:15:14;61.07;;;24.47;;
10659;SDS011;5378;53.206;13.316;2023-04-15T00:18:03;61.67;;;23.50;;
10659;SDS011;5378;53.206;13.316;2023-04-15T00:20:50;64.63;;;24.17;;
10659;SDS011;5378;53.206;13.316;2023-04-15T00:23:38;61.33;;;24.23;;
10659;SDS011;5378;53.206;13.316;2023-04-15T00:26:25;57.33;;;23.23;;
10659;SDS011;5378;53.206;13.316;2023-04-15T00:29:14;55.00;;;22.37;;
10659;SDS011;5378;53.206;13.316;2023-04-15T00:32:00;65.93;;;23.60;;
10659;SDS011;5378;53.206;13.316;2023-04-15T00:34:49;64.97;;;24.07;;
10659;SDS011;5378;53.206;13.316;2023-04-15T00:37:37;63.53;;;25.33;;
10659;SDS011;5378;53.206;13.316;2023-04-15T00:40:24;64.40;;;25.80;;
10659;SDS011;5378;53.206;13.316;2023-04-15T00:43:12;55.00;;;21.70;;
10659;SDS011;5378;53.206;13.316;2023-04-15T00:45:59;61.70;;;22.83;;
10659;SDS011;5378;53.206;13.316;2023-04-15T00:48:48;61.93;;;24.00;;
10659;SDS011;5378;53.206;13.316;2023-04-15T00:51:38;57.50;;;25.10;;
10659;SDS011;5378;53.206;13.316;2023-04-15T00:54:25;55.23;;;23.00;;
10659;SDS011;5378;53.206;13.316;2023-04-15T00:57:12;68.20;;;26.20;;
10659;SDS011;5378;53.206;13.316;2023-04-15T00:59:59;49.80;;;23.63;;
10659;SDS011;5378;53.206;13.316;2023-04-15T01:02:47;54.87;;;23.50;;
10659;SDS011;5378;53.206;13.316;2023-04-15T01:05:34;51.70;;;21.93;;
10659;SDS011;5378;53.206;13.316;2023-04-15T01:08:24;53.93;;;23.83;;
10659;SDS011;5378;53.206;13.316;2023-04-15T01:11:12;53.67;;;20.47;;
10659;SDS011;5378;53.206;13.316;2023-04-15T01:14:00;57.77;;;25.87;;
10659;SDS011;5378;53.206;13.316;2023-04-15T01:16:48;67.50;;;25.03;;
10659;SDS011;5378;53.206;13.316;2023-04-15T01:19:36;50.33;;;23.67;;
10659;SDS011;5378;53.206;13.316;2023-04-15T01:22:24;51.83;;;22.50;;
10659;SDS011;5378;53.206;13.316;2023-04-15T01:25:16;56.17;;;22.70;;
10659;SDS011;5378;53.206;13.316;2023-04-15T01:28:06;58.50;;;24.30;;
10659;SDS011;5378;53.206;13.316;2023-04-15T01:31:04;60.83;;;25.70;;
10659;SDS011;5378;53.206;13.316;2023-04-15T01:33:55;50.90;;;22.20;;
10659;SDS011;5378;53.206;13.316;2023-04-15T01:37:02;58.73;;;24.77;;
10659;SDS011;5378;53.206;13.316;2023-04-15T01:39:49;52.20;;;24.30;;
10659;SDS011;5378;53.206;13.316;2023-04-15T01:42:36;50.77;;;23.17;;
10659;SDS011;5378;53.206;13.316;2023-04-15T01:45:26;57.73;;;25.27;;
10659;SDS011;5378;53.206;13.316;2023-04-15T01:48:14;51.50;;;21.27;;
10659;SDS011;5378;53.206;13.316;2023-04-15T01:51:03;57.20;;;22.53;;
10659;SDS011;5378;53.206;13.316;2023-04-15T01:53:51;51.30;;;22.57;;
10659;SDS011;5378;53.206;13.316;2023-04-15T01:56:42;54.83;;;24.40;;
10659;SDS011;5378;53.206;13.316;2023-04-15T01:59:30;53.83;;;22.40;;
10659;SDS011;5378;53.206;13.316;2023-04-15T02:02:20;47.40;;;21.77;;
10659;SDS011;5378;53.206;13.316;2023-04-15T02:05:09;53.17;;;23.53;;
10659;SDS011;5378;53.206;13.316;2023-04-15T02:07:57;49.57;;;23.00;;
10659;SDS011;5378;53.206;13.316;2023-04-15T02:10:46;46.70;;;21.40;;
10659;SDS011;5378;53.206;13.316;2023-04-15T02:13:34;50.30;;;22.20;;
10659;SDS011;5378;53.206;13.316;2023-04-15T02:16:23;61.30;;;22.90;;
10659;SDS011;5378;53.206;13.316;2023-04-15T02:19:13;54.03;;;24.93;;
10659;SDS011;5378;53.206;13.316;2023-04-15T02:22:02;49.80;;;22.67;;
10659;SDS011;5378;53.206;13.316;2023-04-15T02:24:50;58.33;;;24.00;;
10659;SDS011;5378;53.206;13.316;2023-04-15T02:27:39;45.90;;;22.67;;
10659;SDS011;5378;53.206;13.316;2023-04-15T02:30:28;52.67;;;21.10;;
10659;SDS011;5378;53.206;13.316;2023-04-15T02:33:20;52.73;;;22.80;;
10659;SDS011;5378;53.206;13.316;2023-04-15T02:36:09;48.60;;;23.37;;
10659;SDS011;5378;53.206;13.316;2023-04-15T02:38:58;50.37;;;21.63;;
10659;SDS011;5378;53.206;13.316;2023-04-15T02:41:48;49.27;;;22.93;;
10659;SDS011;5378;53.206;13.316;2023-04-15T02:44:38;51.90;;;22.50;;
10659;SDS011;5378;53.206;13.316;2023-04-15T02:47:26;42.63;;;21.00;;
10659;SDS011;5378;53.206;13.316;2023-04-15T02:50:15;45.13;;;22.13;;
10659;SDS011;5378;53.206;13.316;2023-04-15T02:53:04;38.50;;;19.80;;
10659;SDS011;5378;53.206;13.316;2023-04-15T02:55:53;52.33;;;23.27;;
10659;SDS011;5378;53.206;13.316;2023-04-15T02:58:42;50.13;;;22.30;;
10659;SDS011;5378;53.206;13.316;2023-04-15T03:01:31;45.67;;;22.10;;
10659;SDS011;5378;53.206;13.316;2023-04-15T03:04:20;51.87;;;22.97;;
10659;SDS011;5378;53.206;13.316;2023-04-15T03:07:08;49.80;;;21.97;;
10659;SDS011;5378;53.206;13.316;2023-04-15T03:09:58;47.67;;;21.40;;
10659;SDS011;5378;53.206;13.316;2023-04-15T03:12:47;40.07;;;20.03;;
10659;SDS011;5378;53.206;13.316;2023-04-15T03:15:38;45.70;;;20.77;;
10659;SDS011;5378;53.206;13.316;2023-04-15T03:18:26;43.83;;;21.23;;
10659;SDS011;5378;53.206;13.316;2023-04-15T03:21:19;39.93;;;18.70;;
10659;SDS011;5378;53.206;13.316;2023-04-15T03:24:08;48.37;;;20.93;;
10659;SDS011;5378;53.206;13.316;2023-04-15T03:26:58;46.17;;;20.27;;
10659;SDS011;5378;53.206;13.316;2023-04-15T03:29:47;40.87;;;20.77;;
10659;SDS011;5378;53.206;13.316;2023-04-15T03:32:37;45.00;;;20.83;;
10659;SDS011;5378;53.206;13.316;2023-04-15T03:35:26;40.27;;;19.40;;
10659;SDS011;5378;53.206;13.316;2023-04-15T03:38:15;43.67;;;20.10;;
10659;SDS011;5378;53.206;13.316;2023-04-15T03:41:03;39.50;;;20.00;;
10659;SDS011;5378;53.206;13.316;2023-04-15T03:43:53;57.37;;;22.20;;
10659;SDS011;5378;53.206;13.316;2023-04-15T03:46:42;48.20;;;20.60;;
10659;SDS011;5378;53.206;13.316;2023-04-15T03:49:30;44.60;;;21.40;;
10659;SDS011;5378;53.206;13.316;2023-04-15T03:52:19;48.80;;;20.50;;
10659;SDS011;5378;53.206;13.316;2023-04-15T03:55:08;43.43;;;20.30;;
10659;SDS011;5378;53.206;13.316;2023-04-15T03:57:57;42.83;;;19.90;;
10659;SDS011;5378;53.206;13.316;2023-04-15T04:00:46;38.17;;;18.43;;
10659;SDS011;5378;53.206;13.316;2023-04-15T04:03:35;37.87;;;20.03;;
10659;SDS011;5378;53.206;13.316;2023-04-15T04:06:24;45.23;;;18.27;;
10659;SDS011;5378;53.206;13.316;2023-04-15T04:09:12;39.70;;;19.60;;
10659;SDS011;5378;53.206;13.316;2023-04-15T04:12:01;41.93;;;20.00;;
10659;SDS011;5378;53.206;13.316;2023-04-15T04:14:49;42.93;;;20.53;;
10659;SDS011;5378;53.206;13.316;2023-04-15T04:17:39;44.60;;;19.77;;
10659;SDS011;5378;53.206;13.316;2023-04-15T04:20:28;37.20;;;19.10;;
10659;SDS011;5378;53.206;13.316;2023-04-15T04:23:17;42.73;;;19.77;;
10659;SDS011;5378;53.206;13.316;2023-04-15T04:26:06;48.00;;;19.60;;
10659;SDS011;5378;53.206;13.316;2023-04-15T04:28:55;44.90;;;18.73;;
10659;SDS011;5378;53.206;13.316;2023-04-15T04:31:43;45.63;;;18.63;;
10659;SDS011;5378;53.206;13.316;2023-04-15T04:34:34;42.63;;;18.90;;
10659;SDS011;5378;53.206;13.316;2023-04-15T04:37:22;45.73;;;19.83;;
10659;SDS011;5378;53.206;13.316;2023-04-15T04:40:11;39.27;;;18.07;;
10659;SDS011;5378;53.206;13.316;2023-04-15T04:42:59;41.23;;;19.70;;
10659;SDS011;5378;53.206;13.316;2023-04-15T04:45:48;34.17;;;17.70;;
10659;SDS011;5378;53.206;13.316;2023-04-15T04:48:37;41.67;;;18.20;;
10659;SDS011;5378;53.206;13.316;2023-04-15T04:51:26;39.17;;;17.57;;
10659;SDS011;5378;53.206;13.316;2023-04-15T04:54:15;41.00;;;17.40;;
10659;SDS011;5378;53.206;13.316;2023-04-15T04:57:03;30.53;;;15.97;;
10659;SDS011;5378;53.206;13.316;2023-04-15T04:59:53;30.87;;;15.30;;
10659;SDS011;5378;53.206;13.316;2023-04-15T05:02:42;31.97;;;15.33;;
10659;SDS011;5378;53.206;13.316;2023-04-15T05:05:31;29.97;;;17.00;;
10659;SDS011;5378;53.206;13.316;2023-04-15T05:08:22;34.63;;;17.07;;
10659;SDS011;5378;53.206;13.316;2023-04-15T05:11:11;34.43;;;16.07;;
10659;SDS011;5378;53.206;13.316;2023-04-15T05:13:59;28.60;;;14.63;;
10659;SDS011;5378;53.206;13.316;2023-04-15T05:16:47;28.50;;;15.67;;
10659;SDS011;5378;53.206;13.316;2023-04-15T05:19:36;31.87;;;16.20;;
10659;SDS011;5378;53.206;13.316;2023-04-15T05:22:25;31.27;;;15.60;;
10659;SDS011;5378;53.206;13.316;2023-04-15T05:25:14;43.50;;;17.60;;
10659;SDS011;5378;53.206;13.316;2023-04-15T05:28:03;32.20;;;15.60;;
10659;SDS011;5378;53.206;13.316;2023-04-15T05:30:52;28.33;;;14.60;;
10659;SDS011;5378;53.206;13.316;2023-04-15T05:33:42;29.77;;;15.00;;
10659;SDS011;5378;53.206;13.316;2023-04-15T05:36:30;31.03;;;13.83;;
10659;SDS011;5378;53.206;13.316;2023-04-15T05:39:19;35.00;;;16.40;;
10659;SDS011;5378;53.206;13.316;2023-04-15T05:42:09;25.47;;;14.23;;
10659;SDS011;5378;53.206;13.316;2023-04-15T05:44:57;28.00;;;15.37;;
10659;SDS011;5378;53.206;13.316;2023-04-15T05:47:46;24.20;;;13.70;;
10659;SDS011;5378;53.206;13.316;2023-04-15T05:50:36;23.33;;;13.10;;
10659;SDS011;5378;53.206;13.316;2023-04-15T05:53:24;27.93;;;13.57;;
10659;SDS011;5378;53.206;13.316;2023-04-15T05:56:12;23.40;;;13.83;;
10659;SDS011;5378;53.206;13.316;2023-04-15T05:59:02;23.97;;;12.60;;
10659;SDS011;5378;53.206;13.316;2023-04-15T06:01:51;18.97;;;11.90;;
10659;SDS011;5378;53.206;13.316;2023-04-15T06:04:39;19.33;;;11.20;;
10659;SDS011;5378;53.206;13.316;2023-04-15T06:07:28;21.80;;;11.90;;
10659;SDS011;5378;53.206;13.316;2023-04-15T06:10:17;21.17;;;10.03;;
10659;SDS011;5378;53.206;13.316;2023-04-15T06:13:05;22.60;;;12.17;;
10659;SDS011;5378;53.206;13.316;2023-04-15T06:15:55;19.40;;;10.90;;
10659;SDS011;5378;53.206;13.316;2023-04-15T06:18:44;22.30;;;12.10;;
10659;SDS011;5378;53.206;13.316;2023-04-15T06:21:32;20.60;;;11.20;;
10659;SDS011;5378;53.206;13.316;2023-04-15T06:24:21;18.90;;;11.03;;
10659;SDS011;5378;53.206;13.316;2023-04-15T06:27:09;18.97;;;10.37;;
10659;SDS011;5378;53.206;13.316;2023-04-15T06:29:58;19.90;;;10.50;;
10659;SDS011;5378;53.206;13.316;2023-04-15T06:32:47;20.40;;;10.50;;
10659;SDS011;5378;53.206;13.316;2023-04-15T06:35:36;17.60;;;10.43;;
10659;SDS011;5378;53.206;13.316;2023-04-15T06:38:24;21.40;;;10.80;;
10659;SDS011;5378;53.206;13.316;2023-04-15T06:41:13;16.53;;;10.53;;
10659;SDS011;5378;53.206;13.316;2023-04-15T06:44:01;16.60;;;9.90;;
10659;SDS011;5378;53.206;13.316;2023-04-15T06:46:50;19.60;;;10.17;;
10659;SDS011;5378;53.206;13.316;2023-04-15T06:49:39;20.67;;;10.90;;
10659;SDS011;5378;53.206;13.316;2023-04-15T06:52:28;15.17;;;9.90;;
10659;SDS011;5378;53.206;13.316;2023-04-15T06:55:17;17.70;;;10.70;;
10659;SDS011;5378;53.206;13.316;2023-04-15T06:58:05;12.23;;;8.93;;
10659;SDS011;5378;53.206;13.316;2023-04-15T07:00:53;16.53;;;9.20;;
10659;SDS011;5378;53.206;13.316;2023-04-15T07:03:42;19.20;;;10.93;;
10659;SDS011;5378;53.206;13.316;2023-04-15T07:06:32;18.03;;;9.93;;
10659;SDS011;5378;53.206;13.316;2023-04-15T07:09:21;18.60;;;10.73;;
10659;SDS011;5378;53.206;13.316;2023-04-15T07:12:10;17.30;;;10.20;;
10659;SDS011;5378;53.206;13.316;2023-04-15T07:14:58;20.53;;;10.10;;
10659;SDS011;5378;53.206;13.316;2023-04-15T07:17:47;18.53;;;9.50;;
10659;SDS011;5378;53.206;13.316;2023-04-15T07:20:35;17.90;;;9.80;;
10659;SDS011;5378;53.206;13.316;2023-04-15T07:23:26;17.67;;;11.23;;
10659;SDS011;5378;53.206;13.316;2023-04-15T07:26:15;17.33;;;9.90;;
10659;SDS011;5378;53.206;13.316;2023-04-15T07:29:03;17.00;;;9.43;;
10659;SDS011;5378;53.206;13.316;2023-04-15T07:31:52;17.87;;;10.00;;
10659;SDS011;5378;53.206;13.316;2023-04-15T07:34:42;15.00;;;9.20;;
10659;SDS011;5378;53.206;13.316;2023-04-15T07:37:30;17.27;;;9.43;;
10659;SDS011;5378;53.206;13.316;2023-04-15T07:40:20;17.67;;;9.33;;
10659;SDS011;5378;53.206;13.316;2023-04-15T07:43:09;15.43;;;9.30;;
10659;SDS011;5378;53.206;13.316;2023-04-15T07:45:57;14.53;;;8.53;;
10659;SDS011;5378;53.206;13.316;2023-04-15T07:48:46;18.93;;;9.23;;
10659;SDS011;5378;53.206;13.316;2023-04-15T07:51:35;23.80;;;9.80;;
10659;SDS011;5378;53.206;13.316;2023-04-15T07:54:24;15.63;;;9.07;;
10659;SDS011;5378;53.206;13.316;2023-04-15T07:57:14;18.07;;;10.20;;
10659;SDS011;5378;53.206;13.316;2023-04-15T08:00:03;15.53;;;10.57;;
10659;SDS011;5378;53.206;13.316;2023-04-15T08:02:59;15.73;;;10.30;;
10659;SDS011;5378;53.206;13.316;2023-04-15T08:05:48;15.73;;;10.40;;
10659;SDS011;5378;53.206;13.316;2023-04-15T08:08:37;16.67;;;11.27;;
10659;SDS011;5378;53.206;13.316;2023-04-15T08:11:25;17.73;;;10.47;;
10659;SDS011;5378;53.206;13.316;2023-04-15T08:14:15;18.93;;;10.57;;
10659;SDS011;5378;53.206;13.316;2023-04-15T08:17:04;18.77;;;9.83;;
10659;SDS011;5378;53.206;13.316;2023-04-15T08:19:52;16.73;;;10.80;;
10659;SDS011;5378;53.206;13.316;2023-04-15T08:22:41;15.90;;;10.93;;
10659;SDS011;5378;53.206;13.316;2023-04-15T08:25:30;15.93;;;11.13;;
10659;SDS011;5378;53.206;13.316;2023-04-15T08:28:19;19.00;;;10.97;;
10659;SDS011;5378;53.206;13.316;2023-04-15T08:31:08;20.83;;;12.40;;
10659;SDS011;5378;53.206;13.316;2023-04-15T08:33:57;18.50;;;12.03;;
10659;SDS011;5378;53.206;13.316;2023-04-15T08:36:46;15.23;;;10.27;;
10659;SDS011;5378;53.206;13.316;2023-04-15T08:39:35;15.00;;;10.53;;
10659;SDS011;5378;53.206;13.316;2023-04-15T08:42:26;15.87;;;10.93;;
10659;SDS011;5378;53.206;13.316;2023-04-15T08:45:18;16.37;;;10.20;;
10659;SDS011;5378;53.206;13.316;2023-04-15T08:48:08;22.33;;;11.70;;
10659;SDS011;5378;53.206;13.316;2023-04-15T08:51:03;22.30;;;11.53;;
10659;SDS011;5378;53.206;13.316;2023-04-15T08:53:51;20.13;;;11.43;;
10659;SDS011;5378;53.206;13.316;2023-04-15T08:56:41;19.53;;;11.73;;
10659;SDS011;5378;53.206;13.316;2023-04-15T08:59:30;17.33;;;12.10;;
10659;SDS011;5378;53.206;13.316;2023-04-15T09:02:19;18.73;;;11.67;;
10659;SDS011;5378;53.206;13.316;2023-04-15T09:05:09;25.60;;;12.70;;
10659;SDS011;5378;53.206;13.316;2023-04-15T09:07:57;21.30;;;11.73;;
10659;SDS011;5378;53.206;13.316;2023-04-15T09:10:46;18.60;;;12.40;;
10659;SDS011;5378;53.206;13.316;2023-04-15T09:13:35;17.87;;;11.43;;
10659;SDS011;5378;53.206;13.316;2023-04-15T09:16:24;21.03;;;12.67;;
10659;SDS011;5378;53.206;13.316;2023-04-15T09:19:19;17.90;;;11.07;;
10659;SDS011;5378;53.206;13.316;2023-04-15T09:22:09;18.80;;;12.17;;
10659;SDS011;5378;53.206;13.316;2023-04-15T09:24:58;22.73;;;13.30;;
10659;SDS011;5378;53.206;13.316;2023-04-15T09:27:47;20.67;;;12.07;;
10659;SDS011;5378;53.206;13.316;2023-04-15T09:30:36;18.63;;;11.63;;
10659;SDS011;5378;53.206;13.316;2023-04-15T09:33:24;19.93;;;11.40;;
10659;SDS011;5378;53.206;13.316;2023-04-15T09:36:13;19.37;;;11.60;;
10659;SDS011;5378;53.206;13.316;2023-04-15T09:39:04;18.83;;;11.60;;
10659;SDS011;5378;53.206;13.316;2023-04-15T09:42:05;18.13;;;12.03;;
10659;SDS011;5378;53.206;13.316;2023-04-15T09:44:54;18.63;;;11.30;;
10659;SDS011;5378;53.206;13.316;2023-04-15T09:47:43;27.90;;;13.10;;
10659;SDS011;5378;53.206;13.316;2023-04-15T09:50:31;17.43;;;12.50;;
10659;SDS011;5378;53.206;13.316;2023-04-15T09:53:28;21.87;;;12.87;;
10659;SDS011;5378;53.206;13.316;2023-04-15T09:56:23;16.23;;;10.70;;
10659;SDS011;5378;53.206;13.316;2023-04-15T09:59:22;20.43;;;11.70;;
10659;SDS011;5378;53.206;13.316;2023-04-15T10:02:10;20.37;;;12.80;;
10659;SDS011;5378;53.206;13.316;2023-04-15T10:05:00;18.50;;;10.63;;
10659;SDS011;5378;53.206;13.316;2023-04-15T10:07:49;23.17;;;13.20;;
10659;SDS011;5378;53.206;13.316;2023-04-15T10:10:38;24.10;;;12.70;;
10659;SDS011;5378;53.206;13.316;2023-04-15T10:13:29;19.80;;;10.93;;
10659;SDS011;5378;53.206;13.316;2023-04-15T10:16:21;21.90;;;11.80;;
10659;SDS011;5378;53.206;13.316;2023-04-15T10:19:14;20.93;;;12.40;;
10659;SDS011;5378;53.206;13.316;2023-04-15T10:22:05;20.93;;;12.50;;
10659;SDS011;5378;53.206;13.316;2023-04-15T10:24:54;20.40;;;12.10;;
10659;SDS011;5378;53.206;13.316;2023-04-15T10:27:43;22.27;;;12.70;;
10659;SDS011;5378;53.206;13.316;2023-04-15T10:30:35;24.77;;;13.07;;
10659;SDS011;5378;53.206;13.316;2023-04-15T10:33:24;19.30;;;10.97;;
10659;SDS011;5378;53.206;13.316;2023-04-15T10:36:14;22.10;;;12.90;;
10659;SDS011;5378;53.206;13.316;2023-04-15T10:39:10;20.80;;;13.27;;
10659;SDS011;5378;53.206;13.316;2023-04-15T10:42:32;17.87;;;11.50;;
10659;SDS011;5378;53.206;13.316;2023-04-15T10:45:23;21.07;;;13.10;;
10659;SDS011;5378;53.206;13.316;2023-04-15T10:48:14;21.70;;;12.07;;
10659;SDS011;5378;53.206;13.316;2023-04-15T10:51:03;19.80;;;12.10;;
10659;SDS011;5378;53.206;13.316;2023-04-15T10:53:55;22.83;;;11.33;;
10659;SDS011;5378;53.206;13.316;2023-04-15T10:56:44;26.20;;;13.00;;
10659;SDS011;5378;53.206;13.316;2023-04-15T10:59:35;25.97;;;12.70;;
10659;SDS011;5378;53.206;13.316;2023-04-15T11:02:32;26.67;;;15.67;;
10659;SDS011;5378;53.206;13.316;2023-04-15T11:08:54;21.80;;;13.17;;
10659;SDS011;5378;53.206;13.316;2023-04-15T11:12:03;23.07;;;12.77;;
10659;SDS011;5378;53.206;13.316;2023-04-15T11:14:53;20.77;;;12.87;;
10659;SDS011;5378;53.206;13.316;2023-04-15T11:17:42;20.07;;;12.60;;
10659;SDS011;5378;53.206;13.316;2023-04-15T11:20:31;22.60;;;12.13;;
10659;SDS011;5378;53.206;13.316;2023-04-15T11:23:28;19.57;;;11.93;;
10659;SDS011;5378;53.206;13.316;2023-04-15T11:26:18;19.60;;;11.80;;
10659;SDS011;5378;53.206;13.316;2023-04-15T11:29:06;24.33;;;12.73;;
10659;SDS011;5378;53.206;13.316;2023-04-15T11:32:00;22.97;;;14.13;;
10659;SDS011;5378;53.206;13.316;2023-04-15T11:34:51;23.73;;;10.70;;
10659;SDS011;5378;53.206;13.316;2023-04-15T11:37:40;19.70;;;12.70;;
10659;SDS011;5378;53.206;13.316;2023-04-15T11:40:30;19.17;;;11.77;;
10659;SDS011;5378;53.206;13.316;2023-04-15T11:43:22;16.63;;;11.90;;
10659;SDS011;5378;53.206;13.316;2023-04-15T11:46:11;18.00;;;11.60;;
10659;SDS011;5378;53.206;13.316;2023-04-15T11:48:59;22.90;;;12.13;;
10659;SDS011;5378;53.206;13.316;2023-04-15T11:51:48;20.37;;;11.37;;
10659;SDS011;5378;53.206;13.316;2023-04-15T11:54:35;17.00;;;11.90;;
10659;SDS011;5378;53.206;13.316;2023-04-15T11:57:24;19.10;;;11.17;;
10659;SDS011;5378;53.206;13.316;2023-04-15T12:00:16;22.27;;;11.20;;
10659;SDS011;5378;53.206;13.316;2023-04-15T12:03:13;23.33;;;12.93;;
10659;SDS011;5378;53.206;13.316;2023-04-15T12:06:13;20.60;;;11.60;;
10659;SDS011;5378;53.206;13.316;2023-04-15T12:09:08;25.23;;;12.73;;
10659;SDS011;5378;53.206;13.316;2023-04-15T12:11:56;19.03;;;11.13;;
10659;SDS011;5378;53.206;13.316;2023-04-15T12:14:44;28.33;;;12.30;;
10659;SDS011;5378;53.206;13.316;2023-04-15T12:17:33;19.93;;;13.23;;
10659;SDS011;5378;53.206;13.316;2023-04-15T12:20:23;19.13;;;11.57;;
10659;SDS011;5378;53.206;13.316;2023-04-15T12:23:11;23.43;;;13.10;;
10659;SDS011;5378;53.206;13.316;2023-04-15T12:25:58;24.80;;;13.30;;
10659;SDS011;5378;53.206;13.316;2023-04-15T12:28:52;17.33;;;10.83;;
10659;SDS011;5378;53.206;13.316;2023-04-15T12:31:47;18.33;;;11.30;;
10659;SDS011;5378;53.206;13.316;2023-04-15T12:34:37;23.93;;;12.63;;
10659;SDS011;5378;53.206;13.316;2023-04-15T12:37:26;22.40;;;11.83;;
10659;SDS011;5378;53.206;13.316;2023-04-15T12:40:13;18.97;;;11.70;;
10659;SDS011;5378;53.206;13.316;2023-04-15T12:43:00;21.63;;;12.13;;
10659;SDS011;5378;53.206;13.316;2023-04-15T12:45:47;19.20;;;11.23;;
10659;SDS011;5378;53.206;13.316;2023-04-15T12:48:35;20.00;;;10.40;;
10659;SDS011;5378;53.206;13.316;2023-04-15T12:51:23;23.37;;;11.97;;
10659;SDS011;5378;53.206;13.316;2023-04-15T12:54:11;23.37;;;11.70;;
10659;SDS011;5378;53.206;13.316;2023-04-15T12:56:58;15.37;;;10.17;;
10659;SDS011;5378;53.206;13.316;2023-04-15T12:59:48;21.70;;;11.53;;
10659;SDS011;5378;53.206;13.316;2023-04-15T13:02:35;19.00;;;10.93;;
10659;SDS011;5378;53.206;13.316;2023-04-15T13:05:24;21.60;;;12.60;;
10659;SDS011;5378;53.206;13.316;2023-04-15T13:08:10;20.30;;;11.10;;
10659;SDS011;5378;53.206;13.316;2023-04-15T13:10:58;19.27;;;11.23;;
10659;SDS011;5378;53.206;13.316;2023-04-15T13:13:45;19.53;;;10.97;;
10659;SDS011;5378;53.206;13.316;2023-04-15T13:16:32;18.20;;;10.17;;
10659;SDS011;5378;53.206;13.316;2023-04-15T13:19:20;19.37;;;10.47;;
10659;SDS011;5378;53.206;13.316;2023-04-15T13:22:08;23.37;;;11.13;;
10659;SDS011;5378;53.206;13.316;2023-04-15T13:24:56;20.60;;;10.90;;
10659;SDS011;5378;53.206;13.316;2023-04-15T13:27:43;21.40;;;11.57;;
10659;SDS011;5378;53.206;13.316;2023-04-15T13:30:30;18.03;;;10.57;;
10659;SDS011;5378;53.206;13.316;2023-04-15T13:33:17;19.20;;;9.60;;
10659;SDS011;5378;53.206;13.316;2023-04-15T13:36:04;20.97;;;10.70;;
10659;SDS011;5378;53.206;13.316;2023-04-15T13:38:53;19.97;;;11.43;;
10659;SDS011;5378;53.206;13.316;2023-04-15T13:41:40;14.87;;;9.60;;
10659;SDS011;5378;53.206;13.316;2023-04-15T13:44:27;12.60;;;8.77;;
10659;SDS011;5378;53.206;13.316;2023-04-15T13:47:14;14.63;;;7.63;;
10659;SDS011;5378;53.206;13.316;2023-04-15T13:50:01;13.47;;;7.70;;
10659;SDS011;5378;53.206;13.316;2023-04-15T13:52:48;11.97;;;7.93;;
10659;SDS011;5378;53.206;13.316;2023-04-15T13:55:36;12.67;;;9.07;;
10659;SDS011;5378;53.206;13.316;2023-04-15T13:58:26;11.00;;;7.17;;
10659;SDS011;5378;53.206;13.316;2023-04-15T14:01:13;12.97;;;8.17;;
10659;SDS011;5378;53.206;13.316;2023-04-15T14:04:00;12.70;;;8.07;;
10659;SDS011;5378;53.206;13.316;2023-04-15T14:06:47;14.10;;;7.93;;
10659;SDS011;5378;53.206;13.316;2023-04-15T14:09:34;13.70;;;8.30;;
10659;SDS011;5378;53.206;13.316;2023-04-15T14:12:27;12.80;;;8.00;;
10659;SDS011;5378;53.206;13.316;2023-04-15T14:15:14;15.63;;;7.10;;
10659;SDS011;5378;53.206;13.316;2023-04-15T14:18:01;13.70;;;7.80;;
10659;SDS011;5378;53.206;13.316;2023-04-15T14:20:48;11.10;;;7.07;;
10659;SDS011;5378;53.206;13.316;2023-04-15T14:23:36;11.63;;;7.00;;
10659;SDS011;5378;53.206;13.316;2023-04-15T14:26:23;16.07;;;7.53;;
10659;SDS011;5378;53.206;13.316;2023-04-15T14:29:11;17.93;;;7.73;;
10659;SDS011;5378;53.206;13.316;2023-04-15T14:31:58;19.23;;;8.10;;
10659;SDS011;5378;53.206;13.316;2023-04-15T14:34:46;14.47;;;8.90;;
10659;SDS011;5378;53.206;13.316;2023-04-15T14:37:32;19.90;;;9.17;;
10659;SDS011;5378;53.206;13.316;2023-04-15T14:40:20;14.33;;;9.10;;
10659;SDS011;5378;53.206;13.316;2023-04-15T14:43:07;13.23;;;7.87;;
10659;SDS011;5378;53.206;13.316;2023-04-15T14:45:55;12.90;;;9.10;;
10659;SDS011;5378;53.206;13.316;2023-04-15T14:48:42;21.13;;;9.47;;
10659;SDS011;5378;53.206;13.316;2023-04-15T14:51:30;17.03;;;8.70;;
10659;SDS011;5378;53.206;13.316;2023-04-15T14:54:17;27.17;;;9.50;;
10659;SDS011;5378;53.206;13.316;2023-04-15T14:57:05;19.17;;;10.80;;
10659;SDS011;5378;53.206;13.316;2023-04-15T14:59:53;16.33;;;9.27;;
10659;SDS011;5378;53.206;13.316;2023-04-15T15:02:42;21.53;;;11.50;;
10659;SDS011;5378;53.206;13.316;2023-04-15T15:05:31;15.13;;;9.07;;
10659;SDS011;5378;53.206;13.316;2023-04-15T15:08:18;20.00;;;10.40;;
10659;SDS011;5378;53.206;13.316;2023-04-15T15:11:05;20.83;;;10.97;;
10659;SDS011;5378;53.206;13.316;2023-04-15T15:13:52;15.67;;;9.93;;
10659;SDS011;5378;53.206;13.316;2023-04-15T15:16:40;18.60;;;10.17;;
10659;SDS011;5378;53.206;13.316;2023-04-15T15:19:28;15.70;;;10.63;;
10659;SDS011;5378;53.206;13.316;2023-04-15T15:22:15;15.60;;;9.63;;
10659;SDS011;5378;53.206;13.316;2023-04-15T15:25:04;17.73;;;10.30;;
10659;SDS011;5378;53.206;13.316;2023-04-15T15:27:51;18.13;;;10.30;;
10659;SDS011;5378;53.206;13.316;2023-04-15T15:30:38;17.93;;;10.30;;
10659;SDS011;5378;53.206;13.316;2023-04-15T15:33:25;29.07;;;9.50;;
10659;SDS011;5378;53.206;13.316;2023-04-15T15:36:15;16.53;;;9.93;;
10659;SDS011;5378;53.206;13.316;2023-04-15T15:39:03;21.27;;;9.90;;
10659;SDS011;5378;53.206;13.316;2023-04-15T15:41:50;18.83;;;10.03;;
10659;SDS011;5378;53.206;13.316;2023-04-15T15:44:37;14.33;;;9.03;;
10659;SDS011;5378;53.206;13.316;2023-04-15T15:47:25;18.20;;;10.17;;
10659;SDS011;5378;53.206;13.316;2023-04-15T15:50:12;16.53;;;9.90;;
10659;SDS011;5378;53.206;13.316;2023-04-15T15:53:01;18.60;;;10.00;;
10659;SDS011;5378;53.206;13.316;2023-04-15T15:55:48;15.50;;;9.60;;
10659;SDS011;5378;53.206;13.316;2023-04-15T15:58:37;25.00;;;11.03;;
10659;SDS011;5378;53.206;13.316;2023-04-15T16:01:24;17.27;;;11.00;;
10659;SDS011;5378;53.206;13.316;2023-04-15T16:04:11;18.27;;;11.40;;
10659;SDS011;5378;53.206;13.316;2023-04-15T16:06:58;19.37;;;11.93;;
10659;SDS011;5378;53.206;13.316;2023-04-15T16:09:47;18.00;;;10.70;;
10659;SDS011;5378;53.206;13.316;2023-04-15T16:12:34;18.37;;;11.03;;
10659;SDS011;5378;53.206;13.316;2023-04-15T16:15:21;23.33;;;13.03;;
10659;SDS011;5378;53.206;13.316;2023-04-15T16:18:08;24.20;;;13.60;;
10659;SDS011;5378;53.206;13.316;2023-04-15T16:20:55;18.43;;;10.97;;
10659;SDS011;5378;53.206;13.316;2023-04-15T16:23:43;21.57;;;13.07;;
10659;SDS011;5378;53.206;13.316;2023-04-15T16:26:32;22.20;;;12.50;;
10659;SDS011;5378;53.206;13.316;2023-04-15T16:29:19;21.07;;;13.37;;
10659;SDS011;5378;53.206;13.316;2023-04-15T16:32:05;20.73;;;13.10;;
10659;SDS011;5378;53.206;13.316;2023-04-15T16:34:52;25.73;;;11.90;;